createdAt,value
2018-09-03T00:01:22.644Z,99.90
2018-09-03T00:03:50.637Z,99.90
2018-09-03T00:06:18.684Z,99.90
2018-09-03T00:08:46.762Z,99.90
2018-09-03T00:11:14.853Z,99.90
2018-09-03T00:13:43.241Z,99.90
2018-09-03T00:16:11.253Z,99.90
2018-09-03T00:18:39.272Z,99.90
2018-09-03T00:21:07.629Z,99.90
2018-09-03T00:23:35.596Z,99.90
2018-09-03T00:26:03.665Z,99.90
2018-09-03T00:28:31.704Z,99.90
2018-09-03T00:31:05.278Z,99.90
2018-09-03T00:33:38.722Z,99.90
2018-09-03T00:36:12.481Z,99.90
2018-09-03T00:38:46.057Z,99.90
2018-09-03T00:41:19.584Z,99.90
2018-09-03T00:43:53.230Z,99.90
2018-09-03T00:46:26.786Z,99.90
2018-09-03T00:48:54.843Z,99.90
2018-09-03T00:51:22.918Z,99.90
2018-09-03T00:53:50.928Z,99.90
2018-09-03T00:56:19.072Z,99.90
2018-09-03T00:58:47.152Z,99.90
2018-09-03T01:01:15.234Z,99.90
2018-09-03T01:03:43.251Z,99.90
2018-09-03T01:06:11.299Z,99.90
2018-09-03T01:08:39.402Z,99.90
2018-09-03T01:11:07.990Z,99.90
2018-09-03T01:13:36.069Z,99.90
2018-09-03T01:16:04.073Z,99.90
2018-09-03T01:18:36.372Z,99.90
2018-09-03T01:21:04.413Z,99.90
2018-09-03T01:23:32.517Z,99.90
2018-09-03T01:26:00.600Z,99.90
2018-09-03T01:28:28.596Z,99.90
2018-09-03T01:30:56.663Z,99.90
2018-09-03T01:33:24.709Z,99.90
2018-09-03T01:35:52.816Z,99.90
2018-09-03T01:38:21.033Z,99.90
2018-09-03T01:40:49.047Z,99.90
2018-09-03T01:43:17.085Z,99.90
2018-09-03T01:45:45.288Z,99.90
2018-09-03T01:48:13.316Z,99.90
2018-09-03T01:50:41.352Z,99.90
2018-09-03T01:55:44.152Z,99.90
2018-09-03T01:58:12.156Z,99.90
2018-09-03T02:00:40.157Z,99.90
2018-09-03T02:03:08.509Z,99.90
2018-09-03T02:05:36.524Z,99.90
2018-09-03T02:08:04.876Z,99.90
2018-09-03T02:10:32.969Z,99.90
2018-09-03T02:13:01.046Z,99.90
2018-09-03T02:15:29.098Z,99.90
2018-09-03T02:17:57.185Z,99.90
2018-09-03T02:20:25.204Z,99.90
2018-09-03T02:22:53.517Z,99.90
2018-09-03T02:25:21.522Z,99.90
2018-09-03T02:27:49.529Z,99.90
2018-09-03T02:30:17.582Z,99.90
2018-09-03T02:32:45.577Z,99.90
2018-09-03T02:35:13.640Z,99.90
2018-09-03T02:37:41.644Z,99.90
2018-09-03T02:40:09.649Z,99.90
2018-09-03T02:42:37.684Z,99.90
2018-09-03T02:45:07.068Z,99.90
2018-09-03T02:47:35.113Z,99.90
2018-09-03T02:50:03.129Z,99.90
2018-09-03T02:52:31.531Z,99.90
2018-09-03T02:54:59.520Z,99.90
2018-09-03T02:57:27.534Z,99.90
2018-09-03T02:59:55.572Z,99.90
2018-09-03T03:02:23.724Z,99.90
2018-09-03T03:04:51.978Z,99.90
2018-09-03T03:07:19.981Z,99.90
2018-09-03T03:09:48.056Z,99.90
2018-09-03T03:12:25.909Z,99.90
2018-09-03T03:14:57.016Z,99.90
2018-09-03T03:17:25.162Z,99.90
2018-09-03T03:19:53.599Z,99.90
2018-09-03T03:22:21.631Z,99.90
2018-09-03T03:24:50.674Z,99.90
2018-09-03T03:27:18.747Z,99.90
2018-09-03T03:29:46.818Z,99.90
2018-09-03T03:32:14.877Z,99.90
2018-09-03T03:34:42.890Z,99.90
2018-09-03T03:37:11.279Z,99.90
2018-09-03T03:39:39.276Z,99.90
2018-09-03T03:42:07.284Z,99.90
2018-09-03T03:44:35.601Z,99.90
2018-09-03T03:47:03.714Z,99.90
2018-09-03T03:49:31.797Z,99.90
2018-09-03T03:51:59.841Z,99.90
2018-09-03T03:54:28.013Z,99.90
2018-09-03T03:56:56.063Z,99.90
2018-09-03T03:59:24.149Z,99.90
2018-09-03T04:01:52.316Z,99.90
2018-09-03T04:04:20.334Z,99.90
2018-09-03T04:06:48.317Z,99.90
2018-09-03T04:09:16.369Z,99.90
2018-09-03T04:11:44.391Z,99.90
2018-09-03T04:14:12.741Z,99.90
2018-09-03T04:16:40.750Z,99.90
2018-09-03T04:19:08.811Z,99.90
2018-09-03T04:21:36.925Z,99.90
2018-09-03T04:24:04.946Z,99.90
2018-09-03T04:26:33.006Z,99.90
2018-09-03T04:29:01.005Z,99.90
2018-09-03T04:31:29.022Z,99.90
2018-09-03T04:33:57.070Z,99.90
2018-09-03T04:36:25.176Z,99.90
2018-09-03T04:38:53.291Z,99.90
2018-09-03T04:41:21.366Z,99.90
2018-09-03T04:43:49.435Z,99.90
2018-09-03T04:46:17.926Z,99.90
2018-09-03T04:48:46.134Z,99.90
2018-09-03T04:51:14.141Z,99.90
2018-09-03T04:53:42.145Z,99.90
2018-09-03T04:56:10.276Z,99.90
2018-09-03T04:58:38.282Z,99.90
2018-09-03T05:01:06.469Z,99.90
2018-09-03T05:03:34.521Z,99.90
2018-09-03T05:06:02.591Z,99.90
2018-09-03T05:08:30.904Z,99.90
2018-09-03T05:10:58.910Z,99.90
2018-09-03T05:13:26.918Z,99.90
2018-09-03T05:15:54.961Z,99.90
2018-09-03T05:18:22.974Z,99.90
2018-09-03T05:20:51.009Z,99.90
2018-09-03T05:23:19.057Z,99.90
2018-09-03T05:25:47.186Z,99.90
2018-09-03T05:28:15.185Z,99.90
2018-09-03T05:30:43.225Z,99.90
2018-09-03T05:33:11.534Z,99.90
2018-09-03T05:35:39.630Z,99.90
2018-09-03T05:38:07.712Z,99.90
2018-09-03T05:40:35.818Z,99.90
2018-09-03T05:43:03.923Z,99.90
2018-09-03T05:45:31.913Z,99.90
2018-09-03T05:47:59.960Z,99.90
2018-09-03T05:50:28.088Z,99.90
2018-09-03T05:52:56.004Z,99.90
2018-09-03T05:55:24.104Z,99.90
2018-09-03T05:57:52.177Z,99.90
2018-09-03T06:00:20.189Z,99.90
2018-09-03T06:02:55.001Z,99.90
2018-09-03T06:05:23.005Z,99.90
2018-09-03T06:07:51.043Z,99.90
2018-09-03T06:10:19.356Z,99.90
2018-09-03T06:12:47.420Z,99.90
2018-09-03T06:15:15.438Z,99.90
2018-09-03T06:17:43.866Z,99.90
2018-09-03T06:20:11.817Z,99.90
2018-09-03T06:22:39.882Z,99.90
2018-09-03T06:25:08.273Z,99.90
2018-09-03T06:27:36.362Z,99.90
2018-09-03T06:30:04.737Z,99.90
2018-09-03T06:32:32.837Z,99.90
2018-09-03T06:35:00.922Z,99.90
2018-09-03T06:37:28.974Z,99.90
2018-09-03T06:39:57.093Z,99.90
2018-09-03T06:42:25.169Z,99.90
2018-09-03T06:44:53.172Z,99.90
2018-09-03T06:47:21.213Z,99.90
2018-09-03T06:49:49.234Z,99.90
2018-09-03T06:52:17.233Z,99.90
2018-09-03T06:54:45.298Z,99.90
2018-09-03T06:57:13.561Z,99.90
2018-09-03T06:59:41.653Z,99.90
2018-09-03T07:02:09.629Z,99.90
2018-09-03T07:04:37.830Z,99.90
2018-09-03T07:07:06.462Z,99.90
2018-09-03T07:09:34.469Z,99.90
2018-09-03T07:12:02.481Z,99.90
2018-09-03T07:14:30.516Z,99.90
2018-09-03T07:16:58.522Z,99.90
2018-09-03T07:19:26.773Z,99.90
2018-09-03T07:21:54.816Z,99.90
2018-09-03T07:24:22.922Z,99.90
2018-09-03T07:26:50.929Z,99.90
2018-09-03T07:29:19.173Z,99.90
2018-09-03T07:31:47.469Z,99.90
2018-09-03T07:34:15.478Z,99.90
2018-09-03T07:36:43.483Z,99.90
2018-09-03T07:39:11.613Z,99.90
2018-09-03T07:41:39.649Z,99.90
2018-09-03T07:44:07.814Z,99.90
2018-09-03T07:46:35.800Z,99.90
2018-09-03T07:49:03.913Z,99.90
2018-09-03T07:51:31.873Z,99.90
2018-09-03T07:53:59.894Z,99.90
2018-09-03T07:56:27.964Z,99.90
2018-09-03T07:58:55.997Z,99.90
2018-09-03T08:01:24.007Z,99.90
2018-09-03T08:03:52.057Z,99.90
2018-09-03T08:06:20.137Z,99.90
2018-09-03T08:08:48.217Z,99.90
2018-09-03T08:11:16.257Z,99.90
2018-09-03T08:13:44.287Z,99.90
2018-09-03T08:16:12.773Z,99.90
2018-09-03T08:18:41.400Z,99.90
2018-09-03T08:21:09.409Z,99.90
2018-09-03T08:23:37.401Z,99.90
2018-09-03T08:26:05.781Z,99.90
2018-09-03T08:28:33.825Z,99.90
2018-09-03T08:31:01.882Z,99.90
2018-09-03T08:33:29.989Z,99.90
2018-09-03T08:35:58.577Z,99.90
2018-09-03T08:38:26.575Z,99.90
2018-09-03T08:40:54.654Z,99.90
2018-09-03T08:43:22.681Z,99.90
2018-09-03T08:45:50.700Z,99.90
2018-09-03T08:48:18.796Z,99.90
2018-09-03T08:50:46.888Z,99.90
2018-09-03T08:53:15.206Z,99.90
2018-09-03T08:55:43.245Z,99.90
2018-09-03T08:58:11.337Z,99.80
2018-09-03T09:00:39.427Z,99.70
2018-09-03T09:03:11.690Z,99.80
2018-09-03T09:05:39.782Z,99.50
2018-09-03T09:08:07.836Z,99.80
2018-09-03T09:10:35.846Z,99.20
2018-09-03T09:13:03.841Z,99.60
2018-09-03T09:15:31.922Z,99.10
2018-09-03T09:18:00.017Z,99.40
2018-09-03T09:20:28.206Z,98.30
2018-09-03T09:22:56.265Z,98.20
2018-09-03T09:25:24.294Z,98.30
2018-09-03T09:27:52.291Z,99.20
2018-09-03T09:30:20.302Z,98.10
2018-09-03T09:32:48.614Z,97.70
2018-09-03T09:35:16.609Z,97.40
2018-09-03T09:37:44.668Z,97.00
2018-09-03T09:40:13.177Z,96.70
2018-09-03T09:42:41.457Z,97.00
2018-09-03T09:45:10.043Z,96.40
2018-09-03T09:47:38.346Z,96.20
2018-09-03T09:50:06.349Z,96.70
2018-09-03T09:52:34.505Z,96.40
2018-09-03T09:55:02.905Z,96.00
2018-09-03T09:57:30.999Z,96.10
2018-09-03T09:59:59.317Z,95.80
2018-09-03T10:02:27.665Z,95.40
2018-09-03T10:04:55.857Z,95.10
2018-09-03T10:07:23.896Z,95.00
2018-09-03T10:09:51.900Z,94.70
2018-09-03T10:12:25.351Z,95.10
2018-09-03T10:14:53.402Z,94.60
2018-09-03T10:17:21.500Z,95.10
2018-09-03T10:19:49.541Z,94.30
2018-09-03T10:22:17.661Z,93.40
2018-09-03T10:24:45.758Z,94.40
2018-09-03T10:27:14.081Z,93.50
2018-09-03T10:29:42.323Z,93.10
2018-09-03T10:32:10.369Z,92.90
2018-09-03T10:34:39.010Z,92.20
2018-09-03T10:37:08.012Z,92.30
2018-09-03T10:39:36.045Z,92.40
2018-09-03T10:42:04.285Z,92.40
2018-09-03T10:44:32.574Z,92.50
2018-09-03T10:47:00.664Z,92.30
2018-09-03T10:49:29.158Z,91.80
2018-09-03T10:51:57.653Z,91.30
2018-09-03T10:54:25.662Z,91.70
2018-09-03T10:56:54.124Z,91.20
2018-09-03T10:59:22.157Z,91.30
2018-09-03T11:01:50.161Z,90.60
2018-09-03T11:04:18.209Z,90.10
2018-09-03T11:06:46.254Z,90.40
2018-09-03T11:09:14.350Z,90.80
2018-09-03T11:11:42.729Z,90.60
2018-09-03T11:14:10.732Z,89.50
2018-09-03T11:16:38.793Z,89.00
2018-09-03T11:19:06.839Z,88.60
2018-09-03T11:21:35.143Z,89.70
2018-09-03T11:24:03.253Z,88.00
2018-09-03T11:26:31.258Z,87.80
2018-09-03T11:28:59.257Z,89.40
2018-09-03T11:31:27.297Z,88.10
2018-09-03T11:33:55.385Z,88.10
2018-09-03T11:36:23.421Z,89.50
2018-09-03T11:38:51.427Z,90.50
2018-09-03T11:41:19.417Z,88.50
2018-09-03T11:43:47.593Z,89.80
2018-09-03T11:46:15.609Z,89.00
2018-09-03T11:48:43.826Z,89.50
2018-09-03T11:51:11.838Z,90.40
2018-09-03T11:53:39.829Z,90.10
2018-09-03T11:56:07.941Z,90.70
2018-09-03T11:58:36.296Z,89.60
2018-09-03T12:01:04.626Z,88.90
2018-09-03T12:03:32.703Z,88.40
2018-09-03T12:06:00.705Z,89.90
2018-09-03T12:08:28.769Z,90.00
2018-09-03T12:10:56.853Z,89.90
2018-09-03T12:13:24.944Z,90.40
2018-09-03T12:16:23.902Z,90.80
2018-09-03T12:18:52.585Z,90.40
2018-09-03T12:21:20.629Z,89.10
2018-09-03T12:23:48.682Z,90.30
2018-09-03T12:26:16.681Z,90.00
2018-09-03T12:28:51.217Z,88.70
2018-09-03T12:31:19.239Z,88.70
2018-09-03T12:33:47.240Z,88.80
2018-09-03T12:36:15.377Z,88.10
2018-09-03T12:38:44.494Z,88.50
2018-09-03T12:41:12.505Z,88.10
2018-09-03T12:43:40.497Z,86.90
2018-09-03T12:46:08.891Z,88.10
2018-09-03T12:48:36.986Z,87.40
2018-09-03T12:51:05.591Z,87.40
2018-09-03T12:53:33.861Z,86.50
2018-09-03T12:56:02.617Z,86.30
2018-09-03T12:58:30.668Z,87.10
2018-09-03T13:00:58.667Z,86.80
2018-09-03T13:03:26.711Z,85.10
2018-09-03T13:05:54.730Z,85.40
2018-09-03T13:08:22.845Z,85.90
2018-09-03T13:10:50.852Z,85.70
2018-09-03T13:13:18.861Z,85.20
2018-09-03T13:15:46.900Z,86.00
2018-09-03T13:18:14.963Z,85.70
2018-09-03T13:20:43.054Z,85.80
2018-09-03T13:23:11.133Z,85.20
2018-09-03T13:25:39.154Z,85.80
2018-09-03T13:28:07.184Z,85.80
2018-09-03T13:30:35.192Z,85.60
2018-09-03T13:33:03.229Z,84.30
2018-09-03T13:35:31.285Z,85.00
2018-09-03T13:37:59.330Z,85.20
2018-09-03T13:40:27.419Z,85.10
2018-09-03T13:42:55.901Z,84.80
2018-09-03T13:45:23.902Z,83.00
2018-09-03T13:47:51.893Z,84.30
2018-09-03T13:50:20.214Z,84.20
2018-09-03T13:52:48.213Z,83.20
2018-09-03T13:55:16.326Z,82.60
2018-09-03T13:57:44.553Z,82.00
2018-09-03T14:00:13.313Z,82.50
2018-09-03T14:02:41.597Z,82.90
2018-09-03T14:05:09.649Z,83.50
2018-09-03T14:07:37.965Z,82.00
2018-09-03T14:10:06.065Z,81.20
2018-09-03T14:12:34.004Z,82.70
2018-09-03T14:15:02.133Z,82.80
2018-09-03T14:17:30.121Z,81.70
2018-09-03T14:19:58.834Z,82.10
2018-09-03T14:22:26.821Z,82.50
2018-09-03T14:24:54.977Z,81.20
2018-09-03T14:27:23.093Z,82.50
2018-09-03T14:29:51.165Z,82.10
2018-09-03T14:32:19.286Z,82.80
2018-09-03T14:34:47.426Z,82.40
2018-09-03T14:37:15.596Z,83.50
2018-09-03T14:39:43.688Z,82.20
2018-09-03T14:42:11.813Z,82.20
2018-09-03T14:44:39.888Z,82.30
2018-09-03T14:47:07.943Z,81.70
2018-09-03T14:49:36.400Z,80.10
2018-09-03T14:52:04.677Z,81.90
2018-09-03T14:54:32.679Z,80.80
2018-09-03T14:57:01.101Z,81.00
2018-09-03T14:59:29.089Z,80.10
2018-09-03T15:01:57.367Z,79.80
2018-09-03T15:04:25.601Z,80.80
2018-09-03T15:06:53.653Z,80.10
2018-09-03T15:09:21.653Z,80.20
2018-09-03T15:11:49.722Z,80.50
2018-09-03T15:14:17.784Z,80.70
2018-09-03T15:16:45.874Z,81.40
2018-09-03T15:19:13.952Z,79.90
2018-09-03T15:21:42.010Z,80.30
2018-09-03T15:24:10.021Z,80.90
2018-09-03T15:26:38.057Z,80.40
2018-09-03T15:29:06.089Z,79.60
2018-09-03T15:31:34.169Z,78.70
2018-09-03T15:34:02.172Z,78.70
2018-09-03T15:36:30.381Z,79.00
2018-09-03T15:38:58.329Z,76.50
2018-09-03T15:41:27.335Z,73.60
2018-09-03T15:43:55.380Z,73.50
2018-09-03T15:46:23.421Z,71.80
2018-09-03T15:48:51.590Z,73.40
2018-09-03T15:51:19.665Z,73.30
2018-09-03T15:53:47.708Z,73.40
2018-09-03T15:56:15.709Z,75.70
2018-09-03T15:58:43.701Z,75.90
2018-09-03T16:01:11.802Z,76.40
2018-09-03T16:03:39.804Z,76.00
2018-09-03T16:06:07.841Z,73.10
2018-09-03T16:08:35.834Z,73.70
2018-09-03T16:11:03.936Z,72.40
2018-09-03T16:13:31.945Z,73.80
2018-09-03T16:16:00.002Z,74.80
2018-09-03T16:18:28.263Z,76.20
2018-09-03T16:20:56.968Z,76.70
2018-09-03T16:23:24.973Z,77.50
2018-09-03T16:25:52.977Z,78.20
2018-09-03T16:28:21.029Z,78.40
2018-09-03T16:30:49.115Z,78.50
2018-09-03T16:33:17.156Z,78.00
2018-09-03T16:35:45.257Z,78.90
2018-09-03T16:38:13.250Z,79.00
2018-09-03T16:40:41.345Z,80.00
2018-09-03T16:43:09.433Z,80.70
2018-09-03T16:45:37.477Z,81.60
2018-09-03T16:48:05.489Z,82.40
2018-09-03T16:50:33.586Z,82.70
2018-09-03T16:53:01.674Z,83.60
2018-09-03T16:55:29.674Z,83.60
2018-09-03T16:57:57.732Z,84.00
2018-09-03T17:00:25.832Z,84.90
2018-09-03T17:02:53.897Z,84.90
2018-09-03T17:05:21.929Z,85.10
2018-09-03T17:07:50.142Z,85.60
2018-09-03T17:10:18.153Z,85.40
2018-09-03T17:12:46.226Z,85.70
2018-09-03T17:15:14.634Z,86.00
2018-09-03T17:17:42.717Z,86.30
2018-09-03T17:20:10.728Z,86.70
2018-09-03T17:22:38.777Z,87.00
2018-09-03T17:25:06.865Z,87.10
2018-09-03T17:27:34.873Z,87.10
2018-09-03T17:30:03.038Z,87.10
2018-09-03T17:32:31.107Z,87.50
2018-09-03T17:34:59.205Z,87.60
2018-09-03T17:37:27.285Z,87.90
2018-09-03T17:39:55.365Z,88.10
2018-09-03T17:42:23.558Z,88.40
2018-09-03T17:44:51.601Z,88.60
2018-09-03T17:47:19.625Z,88.50
2018-09-03T17:49:47.680Z,89.20
2018-09-03T17:52:15.839Z,90.50
2018-09-03T17:54:43.981Z,89.80
2018-09-03T17:57:12.025Z,90.20
2018-09-03T17:59:40.139Z,90.40
2018-09-03T18:02:08.210Z,90.80
2018-09-03T18:04:36.236Z,91.20
2018-09-03T18:07:04.284Z,91.50
2018-09-03T18:09:32.281Z,91.80
2018-09-03T18:12:00.470Z,92.00
2018-09-03T18:14:28.513Z,91.90
2018-09-03T18:16:56.604Z,92.00
2018-09-03T18:19:24.881Z,92.30
2018-09-03T18:21:53.153Z,92.50
2018-09-03T18:24:21.149Z,92.60
2018-09-03T18:26:49.190Z,92.80
2018-09-03T18:29:17.237Z,92.80
2018-09-03T18:31:45.327Z,92.90
2018-09-03T18:34:13.373Z,93.30
2018-09-03T18:36:41.378Z,93.30
2018-09-03T18:39:09.461Z,93.30
2018-09-03T18:41:37.931Z,93.50
2018-09-03T18:44:06.072Z,93.80
2018-09-03T18:46:34.073Z,93.90
2018-09-03T18:49:02.688Z,94.20
2018-09-03T18:51:30.793Z,94.10
2018-09-03T18:53:59.047Z,94.10
2018-09-03T18:56:28.037Z,94.30
2018-09-03T18:58:56.058Z,94.50
2018-09-03T19:01:24.110Z,94.60
2018-09-03T19:03:52.249Z,94.60
2018-09-03T19:06:20.367Z,94.50
2018-09-03T19:08:48.413Z,94.80
2018-09-03T19:11:16.526Z,95.10
2018-09-03T19:13:44.573Z,95.10
2018-09-03T19:16:12.709Z,95.20
2018-09-03T19:18:40.701Z,95.10
2018-09-03T19:21:09.005Z,95.20
2018-09-03T19:23:37.005Z,95.40
2018-09-03T19:26:05.146Z,95.70
2018-09-03T19:28:33.319Z,95.90
2018-09-03T19:31:01.285Z,96.10
2018-09-03T19:33:29.302Z,96.30
2018-09-03T19:35:57.292Z,96.60
2018-09-03T19:38:25.566Z,97.10
2018-09-03T19:40:53.565Z,97.20
2018-09-03T19:43:21.625Z,97.40
2018-09-03T19:45:49.958Z,97.80
2018-09-03T19:48:17.953Z,97.60
2018-09-03T19:50:45.961Z,97.70
2018-09-03T19:53:14.028Z,98.10
2018-09-03T19:55:42.034Z,98.00
2018-09-03T19:58:10.081Z,98.20
2018-09-03T20:00:38.270Z,98.30
2018-09-03T20:03:07.629Z,98.50
2018-09-03T20:05:35.732Z,98.40
2018-09-03T20:08:03.747Z,98.30
2018-09-03T20:10:31.773Z,98.30
2018-09-03T20:13:00.145Z,98.30
2018-09-03T20:15:28.456Z,98.50
2018-09-03T20:17:56.572Z,98.50
2018-09-03T20:20:24.875Z,98.40
2018-09-03T20:22:52.915Z,98.50
2018-09-03T20:25:21.214Z,98.80
2018-09-03T20:27:49.908Z,98.70
2018-09-03T20:30:17.904Z,99.00
2018-09-03T20:32:45.917Z,99.50
2018-09-03T20:35:14.032Z,99.90
2018-09-03T20:37:42.074Z,99.90
2018-09-03T20:40:16.901Z,99.90
2018-09-03T20:42:44.951Z,99.90
2018-09-03T20:45:12.970Z,99.90
2018-09-03T20:47:41.035Z,99.90
2018-09-03T20:50:09.258Z,99.90
2018-09-03T20:52:37.719Z,99.90
2018-09-03T20:55:05.857Z,99.90
2018-09-03T20:57:33.985Z,99.90
2018-09-03T21:00:02.083Z,99.90
2018-09-03T21:02:30.082Z,99.90
2018-09-03T21:04:58.092Z,99.90
2018-09-03T21:07:26.420Z,99.90
2018-09-03T21:09:54.417Z,99.90
2018-09-03T21:12:22.429Z,99.90
2018-09-03T21:14:50.578Z,99.90
2018-09-03T21:17:18.578Z,99.90
2018-09-03T21:19:46.641Z,99.90
2018-09-03T21:22:14.641Z,99.90
2018-09-03T21:24:43.022Z,99.90
2018-09-03T21:27:11.026Z,99.90
2018-09-03T21:29:39.030Z,99.90
2018-09-03T21:32:07.077Z,99.90
2018-09-03T21:34:35.085Z,99.90
2018-09-03T21:37:03.090Z,99.90
2018-09-03T21:39:31.129Z,99.90
2018-09-03T21:41:59.133Z,99.90
2018-09-03T21:44:27.452Z,99.90
2018-09-03T21:46:55.880Z,99.90
2018-09-03T21:49:23.878Z,99.90
2018-09-03T21:51:51.912Z,99.90
2018-09-03T21:54:19.945Z,99.90
2018-09-03T21:56:48.007Z,99.90
2018-09-03T21:59:17.729Z,99.90
2018-09-03T22:01:45.754Z,99.90
2018-09-03T22:04:13.765Z,99.90
2018-09-03T22:06:41.789Z,99.90
2018-09-03T22:09:09.788Z,99.90
2018-09-03T22:11:37.831Z,99.90
2018-09-03T22:14:05.930Z,99.90
2018-09-03T22:16:34.210Z,99.90
2018-09-03T22:19:02.213Z,99.90
2018-09-03T22:21:30.227Z,99.90
2018-09-03T22:23:58.317Z,99.90
2018-09-03T22:26:26.349Z,99.90
2018-09-03T22:28:54.437Z,99.90
2018-09-03T22:31:22.486Z,99.90
2018-09-03T22:33:50.525Z,99.90
2018-09-03T22:36:18.596Z,99.90
2018-09-03T22:38:46.635Z,99.90
2018-09-03T22:41:14.663Z,99.90
2018-09-03T22:43:42.707Z,99.90
2018-09-03T22:46:10.751Z,99.90
2018-09-03T22:48:38.807Z,99.90
2018-09-03T22:51:06.816Z,99.90
2018-09-03T22:53:35.006Z,99.90
2018-09-03T22:56:03.052Z,99.90
2018-09-03T22:58:31.146Z,99.90
2018-09-03T23:00:59.230Z,99.90
2018-09-03T23:03:27.317Z,99.90
2018-09-03T23:05:55.318Z,99.90
2018-09-03T23:08:23.473Z,99.90
2018-09-03T23:10:51.518Z,99.90
2018-09-03T23:13:19.566Z,99.90
2018-09-03T23:15:52.644Z,99.90
2018-09-03T23:18:21.823Z,99.90
2018-09-03T23:20:49.818Z,99.90
2018-09-03T23:23:17.826Z,99.90
2018-09-03T23:25:46.654Z,99.90
2018-09-03T23:28:14.665Z,99.90
2018-09-03T23:30:42.974Z,99.90
2018-09-03T23:33:11.688Z,99.90
2018-09-03T23:35:39.773Z,99.90
2018-09-03T23:38:07.816Z,99.90
2018-09-03T23:40:36.250Z,99.90
2018-09-03T23:43:04.257Z,99.90
2018-09-03T23:45:32.312Z,99.90
2018-09-03T23:48:00.623Z,99.90
2018-09-03T23:50:28.700Z,99.90
2018-09-03T23:52:57.281Z,99.90
2018-09-03T23:55:25.316Z,99.90
2018-09-03T23:57:53.661Z,99.90
